createdAt,value
2024-02-19T00:03:28.862Z,8.70
2024-02-19T00:07:48.147Z,8.80
2024-02-19T00:12:06.068Z,8.80
2024-02-19T00:16:23.332Z,8.90
2024-02-19T00:20:40.729Z,8.90
2024-02-19T00:24:57.962Z,8.90
2024-02-19T00:29:15.184Z,8.90
2024-02-19T00:33:32.893Z,9.00
2024-02-19T00:37:50.704Z,9.00
2024-02-19T00:42:07.998Z,9.00
2024-02-19T00:46:25.229Z,9.00
2024-02-19T00:50:42.777Z,8.90
2024-02-19T00:55:00.526Z,8.90
2024-02-19T00:59:17.797Z,8.90
2024-02-19T01:03:35.217Z,9.00
2024-02-19T01:07:52.816Z,9.10
2024-02-19T01:12:10.012Z,9.10
2024-02-19T01:16:27.281Z,9.10
2024-02-19T01:20:44.648Z,9.00
2024-02-19T01:25:02.349Z,9.00
2024-02-19T01:29:19.883Z,8.90
2024-02-19T01:33:37.818Z,9.00
2024-02-19T01:37:55.196Z,9.00
2024-02-19T01:42:13.672Z,8.80
2024-02-19T01:46:32.306Z,8.80
2024-02-19T01:50:49.798Z,8.80
2024-02-19T01:55:07.351Z,8.70
2024-02-19T01:59:26.585Z,8.80
2024-02-19T02:03:46.766Z,8.70
2024-02-19T02:08:06.455Z,8.70
2024-02-19T02:12:23.816Z,8.80
2024-02-19T02:16:40.943Z,8.80
2024-02-19T02:20:59.224Z,8.80
2024-02-19T02:25:16.706Z,8.90
2024-02-19T02:29:34.373Z,8.90
2024-02-19T02:33:51.832Z,9.00
2024-02-19T02:38:10.105Z,9.00
2024-02-19T02:42:27.517Z,8.90
2024-02-19T02:46:44.698Z,8.80
2024-02-19T02:51:01.902Z,8.70
2024-02-19T02:55:19.436Z,8.70
2024-02-19T02:59:36.634Z,8.60
2024-02-19T03:03:54.217Z,8.60
2024-02-19T03:08:11.727Z,8.60
2024-02-19T03:12:30.504Z,8.60
2024-02-19T03:16:47.807Z,8.60
2024-02-19T03:21:09.085Z,8.50
2024-02-19T03:25:26.565Z,8.50
2024-02-19T03:29:43.890Z,8.50
2024-02-19T03:34:01.281Z,8.50
2024-02-19T03:38:18.562Z,8.60
2024-02-19T03:42:36.425Z,8.50
2024-02-19T03:46:53.629Z,8.30
2024-02-19T03:51:11.341Z,8.20
2024-02-19T03:55:28.699Z,8.10
2024-02-19T03:59:46.017Z,8.10
2024-02-19T04:04:03.492Z,8.00
2024-02-19T04:08:20.848Z,7.90
2024-02-19T04:12:39.056Z,7.90
2024-02-19T04:16:56.508Z,7.80
2024-02-19T04:21:13.682Z,7.70
2024-02-19T04:25:30.948Z,7.60
2024-02-19T04:29:48.317Z,7.60
2024-02-19T04:34:09.673Z,7.50
2024-02-19T04:38:26.991Z,7.40
2024-02-19T04:42:44.259Z,7.40
2024-02-19T04:47:01.489Z,7.40
2024-02-19T04:51:18.713Z,7.30
2024-02-19T04:55:36.011Z,7.30
2024-02-19T04:59:53.265Z,7.20
2024-02-19T05:04:10.656Z,7.20
2024-02-19T05:08:27.995Z,7.10
2024-02-19T05:12:45.265Z,7.10
2024-02-19T05:17:02.654Z,7.10
2024-02-19T05:21:19.958Z,7.10
2024-02-19T05:25:38.011Z,7.10
2024-02-19T05:29:55.395Z,7.10
2024-02-19T05:34:12.796Z,7.20
2024-02-19T05:38:30.010Z,7.20
2024-02-19T05:42:47.640Z,7.20
2024-02-19T05:47:05.248Z,7.40
2024-02-19T05:51:23.265Z,7.50
2024-02-19T05:55:40.446Z,7.40
2024-02-19T05:59:59.832Z,7.40
2024-02-19T06:04:18.567Z,7.40
2024-02-19T06:08:35.914Z,7.40
2024-02-19T06:12:53.735Z,7.40
2024-02-19T06:17:11.027Z,7.40
2024-02-19T06:21:28.231Z,7.40
2024-02-19T06:25:45.578Z,7.40
2024-02-19T06:30:03.405Z,7.40
2024-02-19T06:34:21.458Z,7.40
2024-02-19T06:38:38.843Z,7.40
2024-02-19T06:42:56.327Z,7.40
2024-02-19T06:47:14.465Z,7.40
2024-02-19T06:51:31.906Z,7.50
2024-02-19T06:55:49.173Z,7.50
2024-02-19T07:00:08.136Z,7.50
2024-02-19T07:04:25.456Z,7.60
2024-02-19T07:08:42.762Z,7.60
2024-02-19T07:13:00.361Z,7.50
2024-02-19T07:17:17.624Z,7.50
2024-02-19T07:21:34.902Z,7.50
2024-02-19T07:25:55.415Z,7.50
2024-02-19T07:30:13.865Z,7.50
2024-02-19T07:34:31.120Z,7.50
2024-02-19T07:38:48.394Z,7.40
2024-02-19T07:43:06.248Z,7.40
2024-02-19T07:47:23.622Z,7.40
2024-02-19T07:51:40.852Z,7.40
2024-02-19T07:56:06.201Z,7.50
2024-02-19T08:00:23.483Z,7.50
2024-02-19T08:04:40.841Z,7.50
2024-02-19T08:08:59.749Z,7.50
2024-02-19T08:13:17.155Z,7.50
2024-02-19T08:17:34.557Z,7.50
2024-02-19T08:21:51.963Z,7.50
2024-02-19T08:26:09.274Z,7.40
2024-02-19T08:30:26.587Z,7.40
2024-02-19T08:34:43.799Z,7.40
2024-02-19T08:39:01.195Z,7.40
2024-02-19T08:43:18.520Z,7.40
2024-02-19T08:47:37.769Z,7.40
2024-02-19T08:51:55.001Z,7.50
2024-02-19T08:56:12.729Z,7.50
2024-02-19T09:00:32.175Z,7.50
2024-02-19T09:04:51.171Z,7.50
2024-02-19T09:09:09.303Z,7.50
2024-02-19T09:13:26.647Z,7.50
2024-02-19T09:17:43.979Z,7.70
2024-02-19T09:22:01.176Z,7.70
2024-02-19T09:26:19.696Z,7.70
2024-02-19T09:30:36.856Z,7.90
2024-02-19T09:34:53.997Z,8.00
2024-02-19T09:39:13.121Z,8.00
2024-02-19T09:43:30.343Z,8.00
2024-02-19T09:47:53.754Z,8.00
2024-02-19T09:52:13.074Z,8.10
2024-02-19T09:56:30.538Z,8.10
2024-02-19T10:00:48.643Z,8.20
2024-02-19T10:05:08.765Z,8.20
2024-02-19T10:09:26.150Z,8.20
2024-02-19T10:13:43.629Z,8.30
2024-02-19T10:18:01.217Z,8.20
2024-02-19T10:22:19.101Z,8.20
2024-02-19T10:26:36.301Z,8.20
2024-02-19T10:30:53.581Z,8.10
2024-02-19T10:35:11.321Z,8.10
2024-02-19T10:39:28.911Z,8.10
2024-02-19T10:43:46.378Z,8.20
2024-02-19T10:48:04.185Z,8.20
2024-02-19T10:52:22.785Z,8.30
2024-02-19T10:56:44.310Z,8.40
2024-02-19T11:01:05.266Z,8.40
2024-02-19T11:05:28.645Z,8.40
2024-02-19T11:09:45.940Z,8.50
2024-02-19T11:14:03.224Z,8.50
2024-02-19T11:18:21.781Z,8.70
2024-02-19T11:22:40.973Z,8.90
2024-02-19T11:26:58.493Z,8.90
2024-02-19T11:31:15.884Z,8.90
2024-02-19T11:35:37.442Z,9.00
2024-02-19T11:39:54.810Z,9.00
2024-02-19T11:44:16.625Z,9.20
2024-02-19T11:48:37.090Z,9.50
2024-02-19T11:52:56.459Z,9.50
2024-02-19T11:57:14.920Z,9.30
2024-02-19T12:01:33.866Z,9.20
2024-02-19T12:05:51.407Z,9.30
2024-02-19T12:10:11.013Z,9.50
2024-02-19T12:14:28.374Z,9.40
2024-02-19T12:18:46.849Z,9.40
2024-02-19T12:23:04.868Z,9.30
2024-02-19T12:27:21.995Z,9.20
2024-02-19T12:31:39.379Z,9.30
2024-02-19T12:35:56.770Z,9.40
2024-02-19T12:40:14.751Z,9.40
2024-02-19T12:44:32.567Z,9.30
2024-02-19T12:48:50.286Z,9.20
2024-02-19T12:53:07.512Z,9.10
2024-02-19T12:57:24.649Z,9.10
2024-02-19T13:01:42.627Z,9.00
2024-02-19T13:06:00.127Z,9.00
2024-02-19T13:10:17.651Z,9.00
2024-02-19T13:14:35.519Z,9.30
2024-02-19T13:18:53.405Z,9.60
2024-02-19T13:23:11.096Z,9.60
2024-02-19T13:27:28.476Z,9.30
2024-02-19T13:31:46.078Z,9.20
2024-02-19T13:36:03.662Z,9.20
2024-02-19T13:40:21.497Z,9.20
2024-02-19T13:44:39.767Z,9.20
2024-02-19T13:49:01.854Z,9.30
2024-02-19T13:53:19.336Z,9.50
2024-02-19T13:57:37.028Z,9.50
2024-02-19T14:01:54.464Z,9.60
2024-02-19T14:06:12.517Z,9.70
2024-02-19T14:10:30.170Z,9.70
2024-02-19T14:14:47.391Z,9.80
2024-02-19T14:19:04.795Z,10.00
2024-02-19T14:23:22.343Z,9.80
2024-02-19T14:27:40.056Z,9.80
2024-02-19T14:31:58.379Z,9.60
2024-02-19T14:36:15.729Z,9.70
2024-02-19T14:40:34.002Z,9.70
2024-02-19T14:44:52.761Z,9.70
2024-02-19T14:49:11.685Z,9.80
2024-02-19T14:53:28.895Z,9.90
2024-02-19T14:57:47.788Z,9.90
2024-02-19T15:02:05.250Z,9.80
2024-02-19T15:06:23.417Z,9.80
2024-02-19T15:10:41.164Z,9.80
2024-02-19T15:14:58.891Z,9.80
2024-02-19T15:19:17.437Z,9.80
2024-02-19T15:23:40.181Z,10.00
2024-02-19T15:27:57.433Z,10.00
2024-02-19T15:32:16.542Z,9.90
2024-02-19T15:36:33.767Z,9.70
2024-02-19T15:40:51.037Z,9.60
2024-02-19T15:45:08.588Z,9.70
2024-02-19T15:49:26.031Z,9.60
2024-02-19T15:53:43.556Z,9.50
2024-02-19T15:58:01.065Z,9.50
2024-02-19T16:02:18.732Z,9.50
2024-02-19T16:06:38.061Z,9.40
2024-02-19T16:11:01.136Z,9.40
2024-02-19T16:15:18.356Z,9.40
2024-02-19T16:19:35.855Z,9.30
2024-02-19T16:23:53.153Z,9.30
2024-02-19T16:28:10.557Z,9.30
2024-02-19T16:32:27.854Z,9.30
2024-02-19T16:36:45.838Z,9.30
2024-02-19T16:41:03.055Z,9.20
2024-02-19T16:45:20.628Z,9.20
2024-02-19T16:49:38.018Z,9.20
2024-02-19T16:53:58.150Z,9.10
2024-02-19T16:58:19.026Z,9.20
2024-02-19T17:02:36.549Z,9.10
2024-02-19T17:06:55.022Z,9.10
2024-02-19T17:11:12.605Z,9.00
2024-02-19T17:15:29.889Z,9.10
2024-02-19T17:19:47.139Z,9.10
2024-02-19T17:24:05.197Z,9.00
2024-02-19T17:28:23.608Z,9.00
2024-02-19T17:32:40.945Z,8.90
2024-02-19T17:36:58.544Z,9.00
2024-02-19T17:41:15.953Z,9.00
2024-02-19T17:45:33.275Z,8.90
2024-02-19T17:49:50.583Z,8.90
2024-02-19T17:54:08.132Z,8.80
2024-02-19T17:58:25.819Z,8.70
2024-02-19T18:02:43.165Z,8.60
2024-02-19T18:07:01.864Z,8.70
2024-02-19T18:11:20.004Z,8.70
2024-02-19T18:15:37.632Z,8.70
2024-02-19T18:19:55.996Z,8.80
2024-02-19T18:24:13.534Z,8.80
2024-02-19T18:28:31.765Z,8.80
2024-02-19T18:32:49.784Z,8.90
2024-02-19T18:37:08.398Z,8.90
2024-02-19T18:41:25.718Z,8.90
2024-02-19T18:45:43.036Z,8.90
2024-02-19T18:50:00.622Z,8.80
2024-02-19T18:54:19.599Z,8.70
2024-02-19T18:58:36.859Z,8.70
2024-02-19T19:02:58.572Z,8.60
2024-02-19T19:07:19.653Z,8.60
2024-02-19T19:11:37.201Z,8.60
2024-02-19T19:15:57.214Z,8.60
2024-02-19T19:20:14.817Z,8.50
2024-02-19T19:24:32.437Z,8.50
2024-02-19T19:28:49.785Z,8.50
2024-02-19T19:33:07.160Z,8.50
2024-02-19T19:37:25.895Z,8.50
2024-02-19T19:41:43.546Z,8.50
2024-02-19T19:46:00.952Z,8.50
2024-02-19T19:50:20.570Z,8.60
2024-02-19T19:54:37.932Z,8.50
2024-02-19T19:58:58.620Z,8.40
2024-02-19T20:03:15.997Z,8.40
2024-02-19T20:07:33.227Z,8.30
2024-02-19T20:11:50.650Z,8.20
2024-02-19T20:16:08.421Z,8.20
2024-02-19T20:20:27.386Z,8.20
2024-02-19T20:24:44.701Z,8.20
2024-02-19T20:29:02.046Z,8.20
2024-02-19T20:33:19.543Z,8.30
2024-02-19T20:37:36.826Z,8.30
2024-02-19T20:41:54.026Z,8.30
2024-02-19T20:46:11.299Z,8.20
2024-02-19T20:50:28.544Z,8.20
2024-02-19T20:54:45.712Z,8.20
2024-02-19T20:59:02.945Z,8.20
2024-02-19T21:03:22.600Z,8.20
2024-02-19T21:07:45.194Z,8.20
2024-02-19T21:12:03.034Z,8.20
2024-02-19T21:16:20.453Z,8.20
2024-02-19T21:20:38.011Z,8.20
2024-02-19T21:25:00.323Z,8.20
2024-02-19T21:29:18.255Z,8.10
2024-02-19T21:33:35.486Z,8.10
2024-02-19T21:37:53.024Z,8.10
2024-02-19T21:42:10.892Z,8.10
2024-02-19T21:46:28.268Z,8.10
2024-02-19T21:50:45.640Z,8.10
2024-02-19T21:55:04.219Z,8.10
2024-02-19T21:59:21.559Z,8.10
2024-02-19T22:03:38.849Z,8.00
2024-02-19T22:08:01.144Z,8.00
2024-02-19T22:12:18.513Z,8.00
2024-02-19T22:16:35.849Z,8.00
2024-02-19T22:20:53.137Z,8.00
2024-02-19T22:25:10.645Z,8.00
2024-02-19T22:29:27.977Z,8.00
2024-02-19T22:33:45.364Z,7.90
2024-02-19T22:38:02.843Z,7.90
2024-02-19T22:42:20.470Z,7.90
2024-02-19T22:46:37.775Z,7.80
2024-02-19T22:50:55.122Z,7.80
2024-02-19T22:55:12.473Z,7.70
2024-02-19T22:59:29.749Z,7.70
2024-02-19T23:03:47.025Z,7.80
2024-02-19T23:08:04.593Z,7.80
2024-02-19T23:12:22.501Z,7.80
2024-02-19T23:16:39.906Z,7.80
2024-02-19T23:20:57.395Z,7.80
2024-02-19T23:25:14.774Z,7.80
2024-02-19T23:29:32.792Z,7.80
2024-02-19T23:33:50.215Z,7.90
2024-02-19T23:38:08.690Z,7.90
2024-02-19T23:42:26.760Z,7.90
2024-02-19T23:46:45.304Z,7.90
2024-02-19T23:51:02.568Z,8.10
2024-02-19T23:55:19.925Z,8.20
2024-02-19T23:59:37.188Z,8.20
